sensor_id;sensor_type;location;lat;lon;timestamp;temperature;humidity
45115;DHT22;30877;43.706;10.780;2024-01-15T00:00:02;9.10;96.70
45115;DHT22;30877;43.706;10.780;2024-01-15T00:02:37;9.10;96.70
45115;DHT22;30877;43.706;10.780;2024-01-15T00:05:08;9.10;96.70
45115;DHT22;30877;43.706;10.780;2024-01-15T00:07:41;9.10;96.70
45115;DHT22;30877;43.706;10.780;2024-01-15T00:10:12;9.10;96.70
45115;DHT22;30877;43.706;10.780;2024-01-15T00:12:45;9.10;96.70
45115;DHT22;30877;43.706;10.780;2024-01-15T00:16:05;9.10;96.70
45115;DHT22;30877;43.706;10.780;2024-01-15T00:18:38;9.10;96.70
45115;DHT22;30877;43.706;10.780;2024-01-15T00:21:07;9.10;96.70
45115;DHT22;30877;43.706;10.780;2024-01-15T00:23:42;9.10;96.70
45115;DHT22;30877;43.706;10.780;2024-01-15T00:26:57;9.10;96.70
45115;DHT22;30877;43.706;10.780;2024-01-15T00:29:26;9.10;96.70
45115;DHT22;30877;43.706;10.780;2024-01-15T00:31:57;9.00;96.70
45115;DHT22;30877;43.706;10.780;2024-01-15T00:34:26;9.00;96.70
45115;DHT22;30877;43.706;10.780;2024-01-15T00:37:12;9.00;96.70
45115;DHT22;30877;43.706;10.780;2024-01-15T00:39:43;9.00;96.70
45115;DHT22;30877;43.706;10.780;2024-01-15T00:42:14;9.10;96.70
45115;DHT22;30877;43.706;10.780;2024-01-15T00:44:43;9.10;96.70
45115;DHT22;30877;43.706;10.780;2024-01-15T00:52:03;9.10;96.70
45115;DHT22;30877;43.706;10.780;2024-01-15T00:54:32;9.00;96.70
45115;DHT22;30877;43.706;10.780;2024-01-15T00:57:04;9.10;96.70
45115;DHT22;30877;43.706;10.780;2024-01-15T00:59:37;9.10;96.70
45115;DHT22;30877;43.706;10.780;2024-01-15T01:02:06;9.10;96.70
45115;DHT22;30877;43.706;10.780;2024-01-15T01:08:37;9.00;96.70
45115;DHT22;30877;43.706;10.780;2024-01-15T01:11:44;9.10;96.70
45115;DHT22;30877;43.706;10.780;2024-01-15T01:14:13;9.10;96.70
45115;DHT22;30877;43.706;10.780;2024-01-15T01:20:28;9.10;96.70
45115;DHT22;30877;43.706;10.780;2024-01-15T01:26:16;9.10;96.70
45115;DHT22;30877;43.706;10.780;2024-01-15T01:28:48;9.10;96.70
45115;DHT22;30877;43.706;10.780;2024-01-15T01:31:16;9.10;96.70
45115;DHT22;30877;43.706;10.780;2024-01-15T01:33:45;9.00;96.70
45115;DHT22;30877;43.706;10.780;2024-01-15T01:36:15;9.00;96.70
45115;DHT22;30877;43.706;10.780;2024-01-15T01:38:44;9.00;96.70
45115;DHT22;30877;43.706;10.780;2024-01-15T01:41:13;9.00;96.70
45115;DHT22;30877;43.706;10.780;2024-01-15T01:43:42;9.10;96.70
45115;DHT22;30877;43.706;10.780;2024-01-15T01:46:16;9.00;96.70
45115;DHT22;30877;43.706;10.780;2024-01-15T01:48:45;9.00;96.70
45115;DHT22;30877;43.706;10.780;2024-01-15T01:51:16;9.00;96.70
45115;DHT22;30877;43.706;10.780;2024-01-15T01:53:44;9.00;96.70
45115;DHT22;30877;43.706;10.780;2024-01-15T01:56:16;9.00;96.70
45115;DHT22;30877;43.706;10.780;2024-01-15T01:58:45;9.10;96.70
45115;DHT22;30877;43.706;10.780;2024-01-15T02:01:16;9.10;96.70
45115;DHT22;30877;43.706;10.780;2024-01-15T02:03:46;9.00;96.70
45115;DHT22;30877;43.706;10.780;2024-01-15T02:06:17;9.00;96.70
45115;DHT22;30877;43.706;10.780;2024-01-15T02:08:46;9.10;96.70
45115;DHT22;30877;43.706;10.780;2024-01-15T02:14:59;9.00;96.70
45115;DHT22;30877;43.706;10.780;2024-01-15T02:20:14;9.10;96.70
45115;DHT22;30877;43.706;10.780;2024-01-15T02:22:44;9.00;96.70
45115;DHT22;30877;43.706;10.780;2024-01-15T02:25:15;8.90;96.70
45115;DHT22;30877;43.706;10.780;2024-01-15T02:27:44;8.80;96.70
45115;DHT22;30877;43.706;10.780;2024-01-15T02:34:37;8.90;96.70
45115;DHT22;30877;43.706;10.780;2024-01-15T02:37:06;8.80;96.70
45115;DHT22;30877;43.706;10.780;2024-01-15T02:39:48;8.90;96.70
45115;DHT22;30877;43.706;10.780;2024-01-15T02:42:26;8.90;96.70
45115;DHT22;30877;43.706;10.780;2024-01-15T02:45:02;8.80;96.70
45115;DHT22;30877;43.706;10.780;2024-01-15T02:47:34;8.90;96.70
45115;DHT22;30877;43.706;10.780;2024-01-15T02:50:03;8.80;96.70
45115;DHT22;30877;43.706;10.780;2024-01-15T02:52:38;8.80;96.70
45115;DHT22;30877;43.706;10.780;2024-01-15T02:55:44;8.90;96.70
45115;DHT22;30877;43.706;10.780;2024-01-15T02:58:25;8.90;96.70
45115;DHT22;30877;43.706;10.780;2024-01-15T03:00:56;8.90;96.70
45115;DHT22;30877;43.706;10.780;2024-01-15T03:03:28;8.90;96.70
45115;DHT22;30877;43.706;10.780;2024-01-15T03:05:57;8.90;96.70
45115;DHT22;30877;43.706;10.780;2024-01-15T03:08:27;8.90;96.70
45115;DHT22;30877;43.706;10.780;2024-01-15T03:11:19;8.90;96.70
45115;DHT22;30877;43.706;10.780;2024-01-15T03:14:00;8.90;96.70
45115;DHT22;30877;43.706;10.780;2024-01-15T03:23:47;9.00;96.70
45115;DHT22;30877;43.706;10.780;2024-01-15T03:26:24;9.00;96.70
45115;DHT22;30877;43.706;10.780;2024-01-15T03:29:05;9.00;96.70
45115;DHT22;30877;43.706;10.780;2024-01-15T03:31:35;8.90;96.70
45115;DHT22;30877;43.706;10.780;2024-01-15T03:38:18;9.00;96.70
45115;DHT22;30877;43.706;10.780;2024-01-15T03:40:53;9.00;96.70
45115;DHT22;30877;43.706;10.780;2024-01-15T03:43:22;9.00;96.70
45115;DHT22;30877;43.706;10.780;2024-01-15T03:45:54;9.00;96.70
45115;DHT22;30877;43.706;10.780;2024-01-15T03:48:23;8.90;96.70
45115;DHT22;30877;43.706;10.780;2024-01-15T03:50:52;8.90;96.70
45115;DHT22;30877;43.706;10.780;2024-01-15T03:53:24;8.90;96.70
45115;DHT22;30877;43.706;10.780;2024-01-15T03:55:54;8.90;96.70
45115;DHT22;30877;43.706;10.780;2024-01-15T03:58:23;8.90;96.70
45115;DHT22;30877;43.706;10.780;2024-01-15T04:04:00;9.00;96.70
45115;DHT22;30877;43.706;10.780;2024-01-15T04:06:30;9.00;96.70
45115;DHT22;30877;43.706;10.780;2024-01-15T04:09:25;9.00;96.70
45115;DHT22;30877;43.706;10.780;2024-01-15T04:13:03;9.00;96.70
45115;DHT22;30877;43.706;10.780;2024-01-15T04:19:54;9.00;96.70
45115;DHT22;30877;43.706;10.780;2024-01-15T04:29:01;9.00;96.70
45115;DHT22;30877;43.706;10.780;2024-01-15T04:31:30;9.00;96.70
45115;DHT22;30877;43.706;10.780;2024-01-15T04:33:59;9.00;96.70
45115;DHT22;30877;43.706;10.780;2024-01-15T04:36:31;9.00;96.70
45115;DHT22;30877;43.706;10.780;2024-01-15T04:39:03;9.00;96.70
45115;DHT22;30877;43.706;10.780;2024-01-15T04:41:35;9.00;96.70
45115;DHT22;30877;43.706;10.780;2024-01-15T04:44:04;9.00;96.70
45115;DHT22;30877;43.706;10.780;2024-01-15T04:46:36;9.00;96.70
45115;DHT22;30877;43.706;10.780;2024-01-15T04:49:05;9.00;96.70
45115;DHT22;30877;43.706;10.780;2024-01-15T04:51:37;8.90;96.70
45115;DHT22;30877;43.706;10.780;2024-01-15T04:54:07;9.00;96.70
45115;DHT22;30877;43.706;10.780;2024-01-15T04:57:10;9.00;96.70
45115;DHT22;30877;43.706;10.780;2024-01-15T04:59:39;9.00;96.70
45115;DHT22;30877;43.706;10.780;2024-01-15T05:02:31;9.00;96.70
45115;DHT22;30877;43.706;10.780;2024-01-15T05:05:00;9.00;96.70
45115;DHT22;30877;43.706;10.780;2024-01-15T05:07:31;9.00;96.70
45115;DHT22;30877;43.706;10.780;2024-01-15T05:10:20;9.00;96.70
45115;DHT22;30877;43.706;10.780;2024-01-15T05:12:50;9.00;96.70
45115;DHT22;30877;43.706;10.780;2024-01-15T05:15:19;9.00;96.70
45115;DHT22;30877;43.706;10.780;2024-01-15T05:17:48;9.00;96.70
45115;DHT22;30877;43.706;10.780;2024-01-15T05:23:25;9.00;96.70
45115;DHT22;30877;43.706;10.780;2024-01-15T05:25:55;9.00;96.70
45115;DHT22;30877;43.706;10.780;2024-01-15T05:28:24;9.00;96.70
45115;DHT22;30877;43.706;10.780;2024-01-15T05:30:54;9.00;96.70
45115;DHT22;30877;43.706;10.780;2024-01-15T05:33:24;9.00;96.70
45115;DHT22;30877;43.706;10.780;2024-01-15T05:36:38;9.00;96.70
45115;DHT22;30877;43.706;10.780;2024-01-15T05:39:25;9.00;96.70
45115;DHT22;30877;43.706;10.780;2024-01-15T05:41:54;9.00;96.70
45115;DHT22;30877;43.706;10.780;2024-01-15T05:44:23;9.00;96.70
45115;DHT22;30877;43.706;10.780;2024-01-15T05:47:29;9.00;96.70
45115;DHT22;30877;43.706;10.780;2024-01-15T05:49:58;9.00;96.70
45115;DHT22;30877;43.706;10.780;2024-01-15T05:59:57;9.00;96.70
45115;DHT22;30877;43.706;10.780;2024-01-15T06:02:39;9.00;96.70
45115;DHT22;30877;43.706;10.780;2024-01-15T06:05:09;9.00;96.70
45115;DHT22;30877;43.706;10.780;2024-01-15T06:07:38;9.00;96.70
45115;DHT22;30877;43.706;10.780;2024-01-15T06:10:11;8.90;96.70
45115;DHT22;30877;43.706;10.780;2024-01-15T06:12:40;8.90;96.70
45115;DHT22;30877;43.706;10.780;2024-01-15T06:15:11;8.90;96.70
45115;DHT22;30877;43.706;10.780;2024-01-15T06:17:58;8.90;96.70
45115;DHT22;30877;43.706;10.780;2024-01-15T06:20:54;8.90;96.70
45115;DHT22;30877;43.706;10.780;2024-01-15T06:23:23;8.90;96.70
45115;DHT22;30877;43.706;10.780;2024-01-15T06:25:54;8.90;96.70
45115;DHT22;30877;43.706;10.780;2024-01-15T06:28:29;8.90;96.70
45115;DHT22;30877;43.706;10.780;2024-01-15T06:32:15;8.90;96.70
45115;DHT22;30877;43.706;10.780;2024-01-15T06:34:44;8.80;96.70
45115;DHT22;30877;43.706;10.780;2024-01-15T06:37:14;8.80;96.70
45115;DHT22;30877;43.706;10.780;2024-01-15T06:39:51;8.90;96.70
45115;DHT22;30877;43.706;10.780;2024-01-15T06:42:30;8.80;96.70
45115;DHT22;30877;43.706;10.780;2024-01-15T06:45:14;8.80;96.70
45115;DHT22;30877;43.706;10.780;2024-01-15T06:47:45;8.90;96.70
45115;DHT22;30877;43.706;10.780;2024-01-15T06:50:17;8.80;96.70
45115;DHT22;30877;43.706;10.780;2024-01-15T06:52:50;8.80;96.70
45115;DHT22;30877;43.706;10.780;2024-01-15T06:55:19;8.90;96.70
45115;DHT22;30877;43.706;10.780;2024-01-15T06:57:48;8.90;96.70
45115;DHT22;30877;43.706;10.780;2024-01-15T07:00:18;8.90;96.70
45115;DHT22;30877;43.706;10.780;2024-01-15T07:02:50;8.90;96.70
45115;DHT22;30877;43.706;10.780;2024-01-15T07:05:21;8.90;96.70
45115;DHT22;30877;43.706;10.780;2024-01-15T07:09:13;8.90;96.70
45115;DHT22;30877;43.706;10.780;2024-01-15T07:11:46;8.90;96.70
45115;DHT22;30877;43.706;10.780;2024-01-15T07:14:36;8.90;96.70
45115;DHT22;30877;43.706;10.780;2024-01-15T07:17:30;8.90;96.70
45115;DHT22;30877;43.706;10.780;2024-01-15T07:20:12;9.00;96.70
45115;DHT22;30877;43.706;10.780;2024-01-15T07:22:41;9.00;96.70
45115;DHT22;30877;43.706;10.780;2024-01-15T07:25:44;9.00;96.70
45115;DHT22;30877;43.706;10.780;2024-01-15T07:28:24;9.00;96.70
45115;DHT22;30877;43.706;10.780;2024-01-15T07:30:53;9.00;96.70
45115;DHT22;30877;43.706;10.780;2024-01-15T07:38:45;9.00;96.70
45115;DHT22;30877;43.706;10.780;2024-01-15T07:41:48;9.00;96.70
45115;DHT22;30877;43.706;10.780;2024-01-15T07:44:19;9.10;96.70
45115;DHT22;30877;43.706;10.780;2024-01-15T07:47:12;9.10;96.70
45115;DHT22;30877;43.706;10.780;2024-01-15T07:50:17;9.10;96.70
45115;DHT22;30877;43.706;10.780;2024-01-15T07:52:46;9.10;96.70
45115;DHT22;30877;43.706;10.780;2024-01-15T07:55:19;9.10;96.70
45115;DHT22;30877;43.706;10.780;2024-01-15T07:57:48;9.10;96.70
45115;DHT22;30877;43.706;10.780;2024-01-15T08:01:06;9.20;96.70
45115;DHT22;30877;43.706;10.780;2024-01-15T08:03:38;9.20;96.70
45115;DHT22;30877;43.706;10.780;2024-01-15T08:06:08;9.30;96.70
45115;DHT22;30877;43.706;10.780;2024-01-15T08:08:38;9.30;96.70
45115;DHT22;30877;43.706;10.780;2024-01-15T08:11:12;9.40;96.70
45115;DHT22;30877;43.706;10.780;2024-01-15T08:13:41;9.40;96.70
45115;DHT22;30877;43.706;10.780;2024-01-15T08:16:10;9.40;96.70
45115;DHT22;30877;43.706;10.780;2024-01-15T08:18:40;9.50;96.70
45115;DHT22;30877;43.706;10.780;2024-01-15T08:21:09;9.60;96.70
45115;DHT22;30877;43.706;10.780;2024-01-15T08:23:38;9.70;96.70
45115;DHT22;30877;43.706;10.780;2024-01-15T08:26:07;9.80;96.70
45115;DHT22;30877;43.706;10.780;2024-01-15T08:28:39;9.90;96.70
45115;DHT22;30877;43.706;10.780;2024-01-15T08:31:08;9.90;96.70
45115;DHT22;30877;43.706;10.780;2024-01-15T08:33:38;9.90;96.70
45115;DHT22;30877;43.706;10.780;2024-01-15T08:36:07;9.90;96.70
45115;DHT22;30877;43.706;10.780;2024-01-15T08:38:35;10.00;96.70
45115;DHT22;30877;43.706;10.780;2024-01-15T08:41:03;10.10;96.70
45115;DHT22;30877;43.706;10.780;2024-01-15T08:43:31;10.10;96.70
45115;DHT22;30877;43.706;10.780;2024-01-15T08:46:02;10.20;96.70
45115;DHT22;30877;43.706;10.780;2024-01-15T08:48:30;10.20;96.70
45115;DHT22;30877;43.706;10.780;2024-01-15T08:50:59;10.20;96.70
45115;DHT22;30877;43.706;10.780;2024-01-15T08:53:27;10.20;96.70
45115;DHT22;30877;43.706;10.780;2024-01-15T08:55:55;10.30;96.70
45115;DHT22;30877;43.706;10.780;2024-01-15T08:58:24;10.30;96.70
45115;DHT22;30877;43.706;10.780;2024-01-15T09:00:52;10.40;96.70
45115;DHT22;30877;43.706;10.780;2024-01-15T09:03:22;10.40;96.70
45115;DHT22;30877;43.706;10.780;2024-01-15T09:05:50;10.50;96.70
45115;DHT22;30877;43.706;10.780;2024-01-15T09:08:19;10.40;96.70
45115;DHT22;30877;43.706;10.780;2024-01-15T09:10:47;10.40;96.70
45115;DHT22;30877;43.706;10.780;2024-01-15T09:13:15;10.50;96.70
45115;DHT22;30877;43.706;10.780;2024-01-15T09:15:44;10.60;96.70
45115;DHT22;30877;43.706;10.780;2024-01-15T09:18:12;10.70;96.70
45115;DHT22;30877;43.706;10.780;2024-01-15T09:20:42;10.70;96.70
45115;DHT22;30877;43.706;10.780;2024-01-15T09:23:10;10.80;96.70
45115;DHT22;30877;43.706;10.780;2024-01-15T09:25:39;10.80;96.70
45115;DHT22;30877;43.706;10.780;2024-01-15T09:28:07;10.70;96.70
45115;DHT22;30877;43.706;10.780;2024-01-15T09:30:35;10.70;96.70
45115;DHT22;30877;43.706;10.780;2024-01-15T09:33:04;10.80;96.70
45115;DHT22;30877;43.706;10.780;2024-01-15T09:35:33;10.90;96.70
45115;DHT22;30877;43.706;10.780;2024-01-15T09:38:03;10.90;96.70
45115;DHT22;30877;43.706;10.780;2024-01-15T09:40:32;11.00;96.70
45115;DHT22;30877;43.706;10.780;2024-01-15T09:43:02;11.00;96.70
45115;DHT22;30877;43.706;10.780;2024-01-15T09:45:31;11.10;96.70
45115;DHT22;30877;43.706;10.780;2024-01-15T09:48:00;11.10;96.70
45115;DHT22;30877;43.706;10.780;2024-01-15T09:50:28;11.20;96.70
45115;DHT22;30877;43.706;10.780;2024-01-15T09:52:56;11.30;96.70
45115;DHT22;30877;43.706;10.780;2024-01-15T09:55:27;11.30;96.70
45115;DHT22;30877;43.706;10.780;2024-01-15T09:57:56;11.30;96.70
45115;DHT22;30877;43.706;10.780;2024-01-15T10:00:26;11.30;96.70
45115;DHT22;30877;43.706;10.780;2024-01-15T10:02:54;11.40;96.70
45115;DHT22;30877;43.706;10.780;2024-01-15T10:05:23;11.40;96.70
45115;DHT22;30877;43.706;10.780;2024-01-15T10:07:53;11.50;96.70
45115;DHT22;30877;43.706;10.780;2024-01-15T10:10:22;11.50;96.70
45115;DHT22;30877;43.706;10.780;2024-01-15T10:12:54;11.60;96.70
45115;DHT22;30877;43.706;10.780;2024-01-15T10:15:23;11.70;96.70
45115;DHT22;30877;43.706;10.780;2024-01-15T10:17:51;11.70;96.70
45115;DHT22;30877;43.706;10.780;2024-01-15T10:20:20;11.80;96.70
45115;DHT22;30877;43.706;10.780;2024-01-15T10:22:51;11.80;96.70
45115;DHT22;30877;43.706;10.780;2024-01-15T10:25:19;11.90;96.70
45115;DHT22;30877;43.706;10.780;2024-01-15T10:28:02;11.80;96.70
45115;DHT22;30877;43.706;10.780;2024-01-15T10:30:31;11.80;96.70
45115;DHT22;30877;43.706;10.780;2024-01-15T10:33:00;11.80;96.70
45115;DHT22;30877;43.706;10.780;2024-01-15T10:35:30;11.80;96.70
45115;DHT22;30877;43.706;10.780;2024-01-15T10:37:59;11.90;96.70
45115;DHT22;30877;43.706;10.780;2024-01-15T10:40:27;12.10;96.70
45115;DHT22;30877;43.706;10.780;2024-01-15T10:42:55;12.10;96.70
45115;DHT22;30877;43.706;10.780;2024-01-15T10:45:25;12.30;96.70
45115;DHT22;30877;43.706;10.780;2024-01-15T10:48:00;12.50;96.70
45115;DHT22;30877;43.706;10.780;2024-01-15T10:50:32;12.70;96.70
45115;DHT22;30877;43.706;10.780;2024-01-15T10:53:00;12.70;96.70
45115;DHT22;30877;43.706;10.780;2024-01-15T10:55:30;12.80;96.70
45115;DHT22;30877;43.706;10.780;2024-01-15T10:57:59;12.90;96.70
45115;DHT22;30877;43.706;10.780;2024-01-15T11:00:29;12.90;96.70
45115;DHT22;30877;43.706;10.780;2024-01-15T11:03:00;13.10;96.70
45115;DHT22;30877;43.706;10.780;2024-01-15T11:05:33;13.10;96.70
45115;DHT22;30877;43.706;10.780;2024-01-15T11:08:17;12.90;96.70
45115;DHT22;30877;43.706;10.780;2024-01-15T11:10:47;13.00;96.70
45115;DHT22;30877;43.706;10.780;2024-01-15T11:13:20;13.20;96.70
45115;DHT22;30877;43.706;10.780;2024-01-15T11:16:02;13.30;96.70
45115;DHT22;30877;43.706;10.780;2024-01-15T11:18:31;13.30;96.70
45115;DHT22;30877;43.706;10.780;2024-01-15T11:21:26;13.30;96.70
45115;DHT22;30877;43.706;10.780;2024-01-15T11:23:59;13.40;96.70
45115;DHT22;30877;43.706;10.780;2024-01-15T11:26:36;13.40;96.70
45115;DHT22;30877;43.706;10.780;2024-01-15T11:29:06;13.40;96.70
45115;DHT22;30877;43.706;10.780;2024-01-15T11:32:05;13.50;96.70
45115;DHT22;30877;43.706;10.780;2024-01-15T11:34:54;13.60;96.70
45115;DHT22;30877;43.706;10.780;2024-01-15T11:37:58;13.60;96.70
45115;DHT22;30877;43.706;10.780;2024-01-15T11:40:37;13.80;96.70
45115;DHT22;30877;43.706;10.780;2024-01-15T11:43:06;13.90;96.70
45115;DHT22;30877;43.706;10.780;2024-01-15T11:45:37;13.90;96.70
45115;DHT22;30877;43.706;10.780;2024-01-15T11:48:14;14.00;96.70
45115;DHT22;30877;43.706;10.780;2024-01-15T11:50:45;14.00;96.70
45115;DHT22;30877;43.706;10.780;2024-01-15T11:53:17;14.10;96.70
45115;DHT22;30877;43.706;10.780;2024-01-15T11:55:51;14.20;96.70
45115;DHT22;30877;43.706;10.780;2024-01-15T11:58:24;14.10;96.70
45115;DHT22;30877;43.706;10.780;2024-01-15T12:00:53;14.20;96.70
45115;DHT22;30877;43.706;10.780;2024-01-15T12:03:25;14.30;96.70
45115;DHT22;30877;43.706;10.780;2024-01-15T12:05:54;14.50;96.70
45115;DHT22;30877;43.706;10.780;2024-01-15T12:08:22;14.50;96.70
45115;DHT22;30877;43.706;10.780;2024-01-15T12:10:52;14.70;96.70
45115;DHT22;30877;43.706;10.780;2024-01-15T12:13:20;14.70;96.70
45115;DHT22;30877;43.706;10.780;2024-01-15T12:15:49;14.50;96.70
45115;DHT22;30877;43.706;10.780;2024-01-15T12:18:18;14.40;96.70
45115;DHT22;30877;43.706;10.780;2024-01-15T12:20:49;14.30;96.70
45115;DHT22;30877;43.706;10.780;2024-01-15T12:23:17;14.50;96.70
45115;DHT22;30877;43.706;10.780;2024-01-15T12:25:46;14.70;96.70
45115;DHT22;30877;43.706;10.780;2024-01-15T12:28:16;14.80;96.70
45115;DHT22;30877;43.706;10.780;2024-01-15T12:30:47;14.90;96.70
45115;DHT22;30877;43.706;10.780;2024-01-15T12:33:18;15.00;96.70
45115;DHT22;30877;43.706;10.780;2024-01-15T12:35:53;15.20;96.70
45115;DHT22;30877;43.706;10.780;2024-01-15T12:38:22;15.40;96.70
45115;DHT22;30877;43.706;10.780;2024-01-15T12:40:50;15.50;96.70
45115;DHT22;30877;43.706;10.780;2024-01-15T12:43:19;15.60;96.70
45115;DHT22;30877;43.706;10.780;2024-01-15T12:45:47;15.70;96.70
45115;DHT22;30877;43.706;10.780;2024-01-15T12:48:16;15.80;96.70
45115;DHT22;30877;43.706;10.780;2024-01-15T12:50:46;15.60;96.70
45115;DHT22;30877;43.706;10.780;2024-01-15T12:53:17;15.60;96.70
45115;DHT22;30877;43.706;10.780;2024-01-15T12:55:48;15.70;96.70
45115;DHT22;30877;43.706;10.780;2024-01-15T12:58:16;15.30;96.70
45115;DHT22;30877;43.706;10.780;2024-01-15T13:00:47;15.10;96.70
45115;DHT22;30877;43.706;10.780;2024-01-15T13:03:16;15.20;96.70
45115;DHT22;30877;43.706;10.780;2024-01-15T13:05:44;15.30;96.70
45115;DHT22;30877;43.706;10.780;2024-01-15T13:08:13;15.60;96.70
45115;DHT22;30877;43.706;10.780;2024-01-15T13:10:43;15.80;96.70
45115;DHT22;30877;43.706;10.780;2024-01-15T13:13:12;15.70;96.70
45115;DHT22;30877;43.706;10.780;2024-01-15T13:15:40;15.40;96.70
45115;DHT22;30877;43.706;10.780;2024-01-15T13:18:09;15.10;96.70
45115;DHT22;30877;43.706;10.780;2024-01-15T13:20:37;14.90;96.70
45115;DHT22;30877;43.706;10.780;2024-01-15T13:23:06;14.70;96.70
45115;DHT22;30877;43.706;10.780;2024-01-15T13:25:34;14.60;96.70
45115;DHT22;30877;43.706;10.780;2024-01-15T13:28:07;14.50;96.70
45115;DHT22;30877;43.706;10.780;2024-01-15T13:30:38;14.70;96.70
45115;DHT22;30877;43.706;10.780;2024-01-15T13:33:07;14.80;96.70
45115;DHT22;30877;43.706;10.780;2024-01-15T13:35:36;15.00;96.70
45115;DHT22;30877;43.706;10.780;2024-01-15T13:38:04;14.90;96.70
45115;DHT22;30877;43.706;10.780;2024-01-15T13:40:33;14.60;96.70
45115;DHT22;30877;43.706;10.780;2024-01-15T13:43:02;14.60;96.70
45115;DHT22;30877;43.706;10.780;2024-01-15T13:45:36;14.70;96.70
45115;DHT22;30877;43.706;10.780;2024-01-15T13:48:07;14.70;96.70
45115;DHT22;30877;43.706;10.780;2024-01-15T13:50:36;14.60;96.70
45115;DHT22;30877;43.706;10.780;2024-01-15T13:53:05;14.50;96.70
45115;DHT22;30877;43.706;10.780;2024-01-15T13:55:33;14.40;96.70
45115;DHT22;30877;43.706;10.780;2024-01-15T13:58:01;14.20;96.70
45115;DHT22;30877;43.706;10.780;2024-01-15T14:00:32;14.10;96.70
45115;DHT22;30877;43.706;10.780;2024-01-15T14:03:01;14.00;96.70
45115;DHT22;30877;43.706;10.780;2024-01-15T14:05:30;14.00;96.70
45115;DHT22;30877;43.706;10.780;2024-01-15T14:07:59;14.00;96.70
45115;DHT22;30877;43.706;10.780;2024-01-15T14:10:28;13.90;96.70
45115;DHT22;30877;43.706;10.780;2024-01-15T14:12:56;14.00;96.70
45115;DHT22;30877;43.706;10.780;2024-01-15T14:15:28;14.00;96.70
45115;DHT22;30877;43.706;10.780;2024-01-15T14:17:56;14.10;96.70
45115;DHT22;30877;43.706;10.780;2024-01-15T14:20:27;14.20;96.70
45115;DHT22;30877;43.706;10.780;2024-01-15T14:22:56;14.20;96.70
45115;DHT22;30877;43.706;10.780;2024-01-15T14:25:58;14.30;96.70
45115;DHT22;30877;43.706;10.780;2024-01-15T14:28:26;14.30;96.70
45115;DHT22;30877;43.706;10.780;2024-01-15T14:30:55;14.20;96.70
45115;DHT22;30877;43.706;10.780;2024-01-15T14:33:26;14.10;96.70
45115;DHT22;30877;43.706;10.780;2024-01-15T14:35:57;14.00;96.70
45115;DHT22;30877;43.706;10.780;2024-01-15T14:38:25;13.90;96.70
45115;DHT22;30877;43.706;10.780;2024-01-15T14:41:11;13.90;96.70
45115;DHT22;30877;43.706;10.780;2024-01-15T14:43:40;13.90;96.70
45115;DHT22;30877;43.706;10.780;2024-01-15T14:46:08;13.90;96.70
45115;DHT22;30877;43.706;10.780;2024-01-15T14:48:36;13.80;96.70
45115;DHT22;30877;43.706;10.780;2024-01-15T14:51:08;13.80;96.70
45115;DHT22;30877;43.706;10.780;2024-01-15T14:53:37;13.70;96.70
45115;DHT22;30877;43.706;10.780;2024-01-15T14:56:07;13.70;96.70
45115;DHT22;30877;43.706;10.780;2024-01-15T14:58:36;13.70;96.70
45115;DHT22;30877;43.706;10.780;2024-01-15T15:01:04;13.60;96.70
45115;DHT22;30877;43.706;10.780;2024-01-15T15:03:32;13.60;96.70
45115;DHT22;30877;43.706;10.780;2024-01-15T15:06:00;13.50;96.70
45115;DHT22;30877;43.706;10.780;2024-01-15T15:08:31;13.40;96.70
45115;DHT22;30877;43.706;10.780;2024-01-15T15:10:59;13.30;96.70
45115;DHT22;30877;43.706;10.780;2024-01-15T15:13:28;13.20;96.70
45115;DHT22;30877;43.706;10.780;2024-01-15T15:16:11;13.20;96.70
45115;DHT22;30877;43.706;10.780;2024-01-15T15:18:41;13.10;96.70
45115;DHT22;30877;43.706;10.780;2024-01-15T15:21:14;13.10;96.70
45115;DHT22;30877;43.706;10.780;2024-01-15T15:23:44;13.10;96.70
45115;DHT22;30877;43.706;10.780;2024-01-15T15:26:13;13.00;96.70
45115;DHT22;30877;43.706;10.780;2024-01-15T15:28:41;13.00;96.70
45115;DHT22;30877;43.706;10.780;2024-01-15T15:31:10;13.00;96.70
45115;DHT22;30877;43.706;10.780;2024-01-15T15:33:41;12.90;96.70
45115;DHT22;30877;43.706;10.780;2024-01-15T15:36:09;12.90;96.70
45115;DHT22;30877;43.706;10.780;2024-01-15T15:38:38;12.90;96.70
45115;DHT22;30877;43.706;10.780;2024-01-15T15:41:09;12.90;96.70
45115;DHT22;30877;43.706;10.780;2024-01-15T15:43:37;12.80;96.70
45115;DHT22;30877;43.706;10.780;2024-01-15T15:46:07;12.80;96.70
45115;DHT22;30877;43.706;10.780;2024-01-15T15:48:36;12.80;96.70
45115;DHT22;30877;43.706;10.780;2024-01-15T15:51:06;12.80;96.70
45115;DHT22;30877;43.706;10.780;2024-01-15T15:53:34;12.70;96.70
45115;DHT22;30877;43.706;10.780;2024-01-15T15:56:03;12.70;96.70
45115;DHT22;30877;43.706;10.780;2024-01-15T15:58:33;12.70;96.70
45115;DHT22;30877;43.706;10.780;2024-01-15T16:01:01;12.70;96.70
45115;DHT22;30877;43.706;10.780;2024-01-15T16:03:30;12.70;96.70
45115;DHT22;30877;43.706;10.780;2024-01-15T16:05:58;12.70;96.70
45115;DHT22;30877;43.706;10.780;2024-01-15T16:08:26;12.70;96.70
45115;DHT22;30877;43.706;10.780;2024-01-15T16:10:55;12.70;96.70
45115;DHT22;30877;43.706;10.780;2024-01-15T16:13:23;12.70;96.70
45115;DHT22;30877;43.706;10.780;2024-01-15T16:15:52;12.70;96.70
45115;DHT22;30877;43.706;10.780;2024-01-15T16:18:40;12.70;96.70
45115;DHT22;30877;43.706;10.780;2024-01-15T16:21:29;12.70;96.70
45115;DHT22;30877;43.706;10.780;2024-01-15T16:24:17;12.60;96.70
45115;DHT22;30877;43.706;10.780;2024-01-15T16:27:00;12.60;96.70
45115;DHT22;30877;43.706;10.780;2024-01-15T16:29:29;12.60;96.70
45115;DHT22;30877;43.706;10.780;2024-01-15T16:32:00;12.50;96.70
45115;DHT22;30877;43.706;10.780;2024-01-15T16:34:29;12.50;96.70
45115;DHT22;30877;43.706;10.780;2024-01-15T16:37:06;12.50;96.70
45115;DHT22;30877;43.706;10.780;2024-01-15T16:39:36;12.50;96.70
45115;DHT22;30877;43.706;10.780;2024-01-15T16:42:04;12.50;96.70
45115;DHT22;30877;43.706;10.780;2024-01-15T16:44:33;12.50;96.70
45115;DHT22;30877;43.706;10.780;2024-01-15T16:47:03;12.40;96.70
45115;DHT22;30877;43.706;10.780;2024-01-15T16:49:35;12.40;96.70
45115;DHT22;30877;43.706;10.780;2024-01-15T16:52:04;12.40;96.70
45115;DHT22;30877;43.706;10.780;2024-01-15T16:54:34;12.40;96.70
45115;DHT22;30877;43.706;10.780;2024-01-15T16:57:04;12.40;96.70
45115;DHT22;30877;43.706;10.780;2024-01-15T16:59:32;12.50;96.70
45115;DHT22;30877;43.706;10.780;2024-01-15T17:02:01;12.50;96.70
45115;DHT22;30877;43.706;10.780;2024-01-15T17:04:31;12.50;96.70
45115;DHT22;30877;43.706;10.780;2024-01-15T17:07:01;12.50;96.70